Time;durP1;ratioP1;P1;durP2;ratioP2;P2;SDS_P1;SDS_P2;PMS_P1;PMS_P2;Temp;Humidity;BMP_temperature;BMP_pressure;BME280_temperature;BME280_humidity;BME280_pressure;Samples;Min_cycle;Max_cycle;Signal;HPM_P1;HPM_P2
2021/04/15 00:01:20;;;;;;;16.03;8.33;;;0.90;80.00;;;;;;5012457;28;20047;-63
2021/04/15 00:03:46;;;;;;;17.00;9.27;;;0.90;80.10;;;;;;5033184;28;20086;-63
2021/04/15 00:06:20;;;;;;;16.93;8.33;;;0.90;80.10;;;;;;4998766;28;20033;-63
2021/04/15 00:08:47;;;;;;;15.53;8.60;;;0.90;79.90;;;;;;5033343;28;20037;-65
2021/04/15 00:11:15;;;;;;;17.83;9.07;;;0.90;79.80;;;;;;5015062;28;20033;-63
2021/04/15 00:13:53;;;;;;;15.20;8.53;;;0.90;79.70;;;;;;5033533;28;20531;-63
2021/04/15 00:16:19;;;;;;;15.77;8.47;;;0.80;79.60;;;;;;5016725;28;20124;-63
2021/04/15 00:18:45;;;;;;;18.10;8.57;;;0.80;79.60;;;;;;5014877;28;20136;-63
2021/04/15 00:21:12;;;;;;;19.10;9.23;;;0.80;79.70;;;;;;5032708;28;20045;-64
2021/04/15 00:23:37;;;;;;;16.00;8.57;;;0.80;79.80;;;;;;5033068;28;20033;-63
2021/04/15 00:26:05;;;;;;;18.77;9.27;;;0.70;79.70;;;;;;5033100;28;20401;-64
2021/04/15 00:28:30;;;;;;;15.53;7.93;;;0.70;80.00;;;;;;5032186;28;20033;-63
2021/04/15 00:30:56;;;;;;;15.47;8.33;;;0.70;80.30;;;;;;5015641;28;20038;-63
2021/04/15 00:33:22;;;;;;;15.23;8.63;;;0.70;80.40;;;;;;5032788;28;20072;-63
2021/04/15 00:35:48;;;;;;;18.17;9.33;;;0.60;80.40;;;;;;5032087;28;20037;-64
2021/04/15 00:38:16;;;;;;;15.73;8.13;;;0.60;80.50;;;;;;5032300;28;20045;-65
2021/04/15 00:40:44;;;;;;;17.77;8.97;;;0.60;80.50;;;;;;5032671;28;20037;-65
2021/04/15 00:43:12;;;;;;;14.83;8.13;;;0.60;80.80;;;;;;5033074;28;20088;-63
2021/04/15 00:45:42;;;;;;;17.33;8.37;;;0.60;80.90;;;;;;5013643;28;20037;-63
2021/04/15 00:48:16;;;;;;;15.00;8.00;;;0.50;80.80;;;;;;5032353;28;20033;-63
2021/04/15 00:51:16;;;;;;;14.70;8.13;;;0.50;81.00;;;;;;4998317;28;20272;-64
2021/04/15 00:53:51;;;;;;;15.68;7.85;;;0.50;80.90;;;;;;5026915;28;20052;-64
2021/04/15 00:56:17;;;;;;;17.43;8.10;;;0.40;81.00;;;;;;5014685;28;20095;-68
2021/04/15 00:58:45;;;;;;;15.00;8.50;;;0.40;81.20;;;;;;5014500;28;20049;-63
2021/04/15 01:01:10;;;;;;;16.37;8.50;;;0.40;81.30;;;;;;5008498;28;20041;-65
2021/04/15 01:03:38;;;;;;;14.73;8.30;;;0.40;81.30;;;;;;5028475;28;20030;-63
2021/04/15 01:06:06;;;;;;;17.07;8.20;;;0.40;81.40;;;;;;5025498;28;20038;-65
2021/04/15 01:08:32;;;;;;;18.03;8.97;;;0.40;81.50;;;;;;5014101;28;20060;-62
2021/04/15 01:11:04;;;;;;;15.23;9.07;;;0.30;81.60;;;;;;5014536;28;20061;-64
2021/04/15 01:13:53;;;;;;;18.87;9.27;;;0.30;81.60;;;;;;5013980;28;20571;-65
2021/04/15 01:16:43;;;;;;;18.77;10.33;;;0.30;81.80;;;;;;5031820;28;20041;-63
2021/04/15 01:19:30;;;;;;;23.02;9.98;;;0.30;81.80;;;;;;5013805;28;20037;-63
2021/04/15 01:22:15;;;;;;;17.43;9.60;;;0.30;81.90;;;;;;5031784;28;20393;-63
2021/04/15 01:24:58;;;;;;;16.40;9.17;;;0.30;81.80;;;;;;5032014;28;20038;-63
2021/04/15 01:27:47;;;;;;;18.67;10.13;;;0.30;81.90;;;;;;5031012;28;20041;-65
2021/04/15 01:30:24;;;;;;;18.60;10.00;;;0.30;81.80;;;;;;5031543;28;20409;-64
2021/04/15 01:32:55;;;;;;;17.60;9.87;;;0.30;82.00;;;;;;5031757;28;20033;-65
2021/04/15 01:35:28;;;;;;;16.60;9.17;;;0.20;82.00;;;;;;5013351;28;20582;-66
2021/04/15 01:38:03;;;;;;;21.43;10.20;;;0.30;82.10;;;;;;5013120;28;20033;-63
2021/04/15 01:40:31;;;;;;;18.63;9.77;;;0.20;82.10;;;;;;5031411;28;20553;-63
2021/04/15 01:42:59;;;;;;;18.63;10.00;;;0.20;82.20;;;;;;5014137;28;20034;-63
2021/04/15 01:45:26;;;;;;;19.80;10.10;;;0.20;82.40;;;;;;4996220;28;20072;-64
2021/04/15 01:48:00;;;;;;;17.67;9.53;;;0.20;82.50;;;;;;5013367;28;20044;-64
2021/04/15 01:50:31;;;;;;;18.83;10.10;;;0.20;82.70;;;;;;5014212;28;20045;-65
2021/04/15 01:53:01;;;;;;;18.17;9.53;;;0.20;82.60;;;;;;5031831;28;20041;-63
2021/04/15 01:55:50;;;;;;;17.47;9.63;;;0.20;82.70;;;;;;5031457;28;20034;-63
2021/04/15 01:58:23;;;;;;;19.03;9.73;;;0.20;82.80;;;;;;5030357;28;20080;-63
2021/04/15 02:00:54;;;;;;;16.73;9.57;;;0.20;82.90;;;;;;5013664;28;20041;-63
2021/04/15 02:03:27;;;;;;;16.20;9.07;;;0.20;82.90;;;;;;5015913;28;20063;-63
2021/04/15 02:06:00;;;;;;;16.53;9.00;;;0.20;82.90;;;;;;5028443;28;20497;-63
2021/04/15 02:08:28;;;;;;;17.43;9.50;;;0.20;82.90;;;;;;5002932;28;20405;-63
2021/04/15 02:11:16;;;;;;;16.07;8.40;;;0.20;82.90;;;;;;5031278;28;20049;-64
2021/04/15 02:13:44;;;;;;;16.80;9.03;;;0.20;82.90;;;;;;5027704;28;20045;-63
2021/04/15 02:16:15;;;;;;;18.60;9.77;;;0.20;83.00;;;;;;5028199;28;20041;-64
2021/04/15 02:18:52;;;;;;;15.27;8.93;;;0.20;83.00;;;;;;5012146;28;20049;-63
2021/04/15 02:21:47;;;;;;;20.30;10.93;;;0.10;83.10;;;;;;5030875;28;20545;-64
2021/04/15 02:24:25;;;;;;;17.37;9.77;;;0.10;83.20;;;;;;5023405;28;20072;-63
2021/04/15 02:26:58;;;;;;;15.57;8.37;;;0.10;83.20;;;;;;5030954;28;20076;-63
2021/04/15 02:29:25;;;;;;;15.70;8.80;;;0.10;83.20;;;;;;5009396;28;20129;-63
2021/04/15 02:31:56;;;;;;;17.33;9.57;;;0.00;83.20;;;;;;5009933;28;20116;-62
2021/04/15 02:34:34;;;;;;;;;;;0.00;83.30;;;;;;5030536;28;20091;-65
2021/04/15 02:37:15;;;;;;;17.20;9.23;;;0.00;83.60;;;;;;5012827;28;19920;-63
2021/04/15 02:39:51;;;;;;;16.10;9.10;;;0.00;83.40;;;;;;5012941;28;20038;-63
2021/04/15 02:42:26;;;;;;;15.00;8.23;;;0.00;83.40;;;;;;5030757;28;20071;-63
2021/04/15 02:45:00;;;;;;;16.63;9.43;;;-0.10;83.30;;;;;;5013164;28;20432;-65
2021/04/15 02:47:42;;;;;;;18.13;9.30;;;-0.10;83.50;;;;;;5030203;28;20547;-62
2021/04/15 02:50:11;;;;;;;16.20;9.00;;;0.00;83.60;;;;;;5012788;28;20038;-65
2021/04/15 02:52:46;;;;;;;17.73;9.77;;;0.00;83.60;;;;;;5013053;28;20408;-62
2021/04/15 02:55:21;;;;;;;15.50;9.23;;;-0.10;83.50;;;;;;5030135;28;20459;-63
2021/04/15 02:57:53;;;;;;;16.10;9.30;;;-0.10;83.70;;;;;;5030332;28;20401;-64
2021/04/15 03:00:23;;;;;;;15.87;9.53;;;-0.10;83.70;;;;;;5030227;28;20260;-63
2021/04/15 03:02:57;;;;;;;16.67;9.90;;;-0.10;83.80;;;;;;4998881;28;20043;-63
2021/04/15 03:05:25;;;;;;;17.20;9.33;;;-0.20;83.80;;;;;;5028610;28;20045;-63
2021/04/15 03:07:54;;;;;;;19.83;9.97;;;-0.20;84.00;;;;;;5021598;28;20041;-63
2021/04/15 03:10:27;;;;;;;16.73;9.37;;;-0.30;84.00;;;;;;5026117;28;20490;-63
2021/04/15 03:13:15;;;;;;;18.23;9.80;;;-0.20;84.10;;;;;;5013435;28;20049;-63
2021/04/15 03:15:59;;;;;;;17.60;9.40;;;-0.20;84.10;;;;;;5012057;28;20045;-63
2021/04/15 03:18:33;;;;;;;15.90;8.70;;;-0.30;84.20;;;;;;5017293;28;20045;-63
2021/04/15 03:21:17;;;;;;;18.97;9.30;;;-0.30;84.20;;;;;;5033088;28;20103;-63
2021/04/15 03:23:46;;;;;;;17.90;9.27;;;-0.30;84.20;;;;;;5033171;28;20037;-63
2021/04/15 03:26:33;;;;;;;16.70;9.20;;;-0.30;84.40;;;;;;5034128;28;20398;-62
2021/04/15 03:29:12;;;;;;;16.80;9.33;;;-0.30;84.50;;;;;;5033236;28;20390;-65
2021/04/15 03:31:47;;;;;;;18.47;9.70;;;-0.30;84.50;;;;;;5016406;28;20057;-64
2021/04/15 03:34:43;;;;;;;16.50;9.40;;;-0.30;84.80;;;;;;5033176;28;20037;-64
2021/04/15 03:37:16;;;;;;;18.27;9.80;;;-0.30;84.80;;;;;;5028661;28;20064;-63
2021/04/15 03:39:44;;;;;;;16.20;9.20;;;-0.30;84.80;;;;;;5016188;28;20030;-63
2021/04/15 03:42:27;;;;;;;19.50;9.10;;;-0.20;84.70;;;;;;4999680;28;20485;-63
2021/04/15 03:45:02;;;;;;;15.73;8.67;;;-0.20;84.70;;;;;;5015390;28;20474;-63
2021/04/15 03:47:36;;;;;;;16.50;8.67;;;-0.30;84.60;;;;;;5032193;28;20612;-65
2021/04/15 03:50:17;;;;;;;15.73;9.13;;;-0.30;84.70;;;;;;5033762;28;20401;-63
2021/04/15 03:52:58;;;;;;;16.97;9.10;;;-0.30;84.80;;;;;;5033467;28;20057;-63
2021/04/15 03:55:47;;;;;;;16.38;8.80;;;-0.40;84.90;;;;;;5033093;28;20501;-63
2021/04/15 03:58:35;;;;;;;17.70;9.23;;;-0.40;85.10;;;;;;5033335;28;20049;-63
2021/04/15 04:01:22;;;;;;;18.67;9.43;;;-0.40;85.20;;;;;;5030603;28;20119;-65
2021/04/15 04:04:01;;;;;;;20.23;10.43;;;-0.40;85.00;;;;;;5012479;28;20053;-63
2021/04/15 04:06:28;;;;;;;30.00;17.20;;;-0.40;85.00;;;;;;5030964;28;20037;-63
2021/04/15 04:09:41;;;;;;;31.07;18.50;;;-0.40;85.10;;;;;;5032204;28;20041;-64
2021/04/15 04:12:14;;;;;;;32.20;17.37;;;-0.40;85.20;;;;;;5026595;28;20045;-63
2021/04/15 04:15:09;;;;;;;29.40;16.57;;;-0.40;85.30;;;;;;5032621;28;20048;-63
2021/04/15 04:17:38;;;;;;;29.90;16.47;;;-0.40;85.30;;;;;;5011802;28;20037;-63
2021/04/15 04:20:06;;;;;;;26.40;15.70;;;-0.40;85.30;;;;;;5014516;28;20429;-64
2021/04/15 04:22:56;;;;;;;28.43;16.73;;;-0.40;85.30;;;;;;5013696;28;20543;-63
2021/04/15 04:25:36;;;;;;;30.48;16.75;;;-0.50;85.30;;;;;;5031193;28;20121;-63
2021/04/15 04:28:18;;;;;;;28.15;17.00;;;-0.40;85.30;;;;;;5010685;28;20037;-64
2021/04/15 04:31:07;;;;;;;27.23;14.83;;;-0.40;85.30;;;;;;4995058;28;20041;-63
2021/04/15 04:33:47;;;;;;;23.30;13.83;;;-0.40;85.40;;;;;;5011386;28;20037;-63
2021/04/15 04:36:15;;;;;;;27.83;14.07;;;-0.40;85.40;;;;;;5024836;28;20393;-64
2021/04/15 04:38:42;;;;;;;21.87;12.97;;;-0.40;85.50;;;;;;5011539;28;20110;-63
2021/04/15 04:41:16;;;;;;;21.20;12.50;;;-0.40;85.70;;;;;;5025479;28;20045;-63
2021/04/15 04:43:51;;;;;;;23.67;11.80;;;-0.40;85.60;;;;;;5027713;28;20045;-62
2021/04/15 04:46:51;;;;;;;23.23;13.13;;;-0.40;85.70;;;;;;5030258;28;20103;-64
2021/04/15 04:49:30;;;;;;;22.60;12.63;;;-0.40;86.00;;;;;;5007673;28;20049;-63
2021/04/15 04:52:03;;;;;;;21.43;11.47;;;-0.40;86.00;;;;;;5016012;28;20041;-62
2021/04/15 04:54:29;;;;;;;20.40;12.10;;;-0.40;86.10;;;;;;4998102;28;20505;-65
2021/04/15 04:57:03;;;;;;;19.60;11.20;;;-0.30;86.20;;;;;;5014483;28;20041;-66
2021/04/15 04:59:33;;;;;;;21.00;12.17;;;-0.30;86.30;;;;;;5014314;28;20056;-63
2021/04/15 05:01:59;;;;;;;19.00;10.88;;;-0.20;86.50;;;;;;5032550;28;20184;-65
2021/04/15 05:04:29;;;;;;;18.30;10.93;;;-0.20;86.50;;;;;;5032669;28;20132;-65
2021/04/15 05:07:07;;;;;;;19.85;11.93;;;-0.10;86.80;;;;;;4998087;28;20030;-66
2021/04/15 05:09:38;;;;;;;25.00;13.83;;;0.00;86.90;;;;;;5014500;28;20034;-63
2021/04/15 05:12:13;;;;;;;;;;;0.00;87.20;;;;;;5032756;28;20039;-62
2021/04/15 05:14:39;;;;;;;23.20;13.33;;;0.10;87.30;;;;;;5031888;28;20305;-63
2021/04/15 05:17:41;;;;;;;23.13;14.00;;;0.30;88.00;;;;;;5014225;28;20041;-63
2021/04/15 05:20:20;;;;;;;18.63;12.07;;;0.50;88.90;;;;;;5031870;28;20030;-62
2021/04/15 05:23:01;;;;;;;17.00;10.27;;;1.00;90.50;;;;;;5014845;28;20087;-63
2021/04/15 05:25:39;;;;;;;;;;;1.60;91.40;;;;;;5032551;28;20040;-64
2021/04/15 05:28:11;;;;;;;14.97;8.07;;;2.30;91.70;;;;;;5013586;28;19948;-65
2021/04/15 05:30:44;;;;;;;13.47;8.47;;;3.00;91.40;;;;;;5032171;28;20034;-64
2021/04/15 05:33:19;;;;;;;14.43;9.30;;;3.50;91.40;;;;;;5031314;28;20033;-64
2021/04/15 05:35:51;;;;;;;17.10;10.07;;;4.00;90.70;;;;;;5031794;28;20029;-64
2021/04/15 05:38:18;;;;;;;15.27;10.50;;;4.50;90.70;;;;;;5031575;28;20048;-64
2021/04/15 05:40:48;;;;;;;13.50;10.67;;;4.90;90.60;;;;;;5013590;28;20036;-64
2021/04/15 05:43:42;;;;;;;16.83;11.80;;;5.30;90.10;;;;;;5014260;28;20440;-65
2021/04/15 05:46:18;;;;;;;13.03;9.50;;;5.80;89.60;;;;;;5031572;28;20048;-63
2021/04/15 05:48:45;;;;;;;13.70;9.67;;;6.10;89.50;;;;;;5013476;28;20103;-65
2021/04/15 05:51:18;;;;;;;14.33;9.27;;;6.50;89.50;;;;;;5013793;28;20045;-64
2021/04/15 05:53:49;;;;;;;12.37;7.87;;;7.00;88.70;;;;;;5031989;28;20490;-63
2021/04/15 05:56:26;;;;;;;11.70;6.90;;;7.50;89.20;;;;;;5013717;28;20038;-65
2021/04/15 05:58:59;;;;;;;12.60;7.20;;;8.10;88.70;;;;;;5031304;28;20041;-64
2021/04/15 06:01:47;;;;;;;11.65;7.03;;;8.80;87.60;;;;;;5031103;28;20395;-63
2021/04/15 06:04:24;;;;;;;11.82;7.10;;;9.50;86.20;;;;;;5013391;28;20056;-62
2021/04/15 06:06:50;;;;;;;11.38;7.35;;;10.20;84.10;;;;;;5031493;28;20057;-63
2021/04/15 06:09:17;;;;;;;10.75;6.45;;;10.70;82.70;;;;;;5030626;28;20126;-65
2021/04/15 06:12:03;;;;;;;9.70;5.88;;;11.30;80.70;;;;;;5031191;28;20115;-65
2021/04/15 06:14:38;;;;;;;11.27;6.50;;;11.80;78.70;;;;;;5030379;28;20049;-65
2021/04/15 06:17:19;;;;;;;10.55;6.05;;;12.20;78.00;;;;;;5030071;28;20494;-63
2021/04/15 06:19:51;;;;;;;9.60;6.20;;;12.90;76.30;;;;;;5013041;28;20029;-64
2021/04/15 06:22:20;;;;;;;8.95;5.88;;;13.60;74.90;;;;;;5011912;28;20405;-64
2021/04/15 06:24:50;;;;;;;10.85;5.63;;;14.30;72.60;;;;;;5030668;28;20124;-63
2021/04/15 06:27:16;;;;;;;11.77;6.05;;;14.80;70.10;;;;;;5030356;28;20459;-64
2021/04/15 06:30:00;;;;;;;9.48;5.55;;;15.40;68.10;;;;;;5013009;28;20049;-65
2021/04/15 06:32:39;;;;;;;9.43;5.57;;;16.00;66.30;;;;;;5030638;28;20061;-67
2021/04/15 06:35:08;;;;;;;10.27;5.60;;;16.50;63.80;;;;;;4993375;28;20034;-64
2021/04/15 06:37:51;;;;;;;8.05;5.15;;;17.00;61.70;;;;;;5010358;28;20042;-64
2021/04/15 06:40:28;;;;;;;9.63;5.10;;;17.40;59.80;;;;;;5001136;28;20042;-63
2021/04/15 06:43:27;;;;;;;8.07;5.03;;;17.80;58.40;;;;;;5025594;28;20094;-64
2021/04/15 06:46:14;;;;;;;9.15;5.18;;;18.20;56.90;;;;;;5026934;28;20042;-65
2021/04/15 06:48:57;;;;;;;8.45;4.25;;;18.80;55.60;;;;;;5008343;28;20030;-63
2021/04/15 06:51:48;;;;;;;7.85;4.10;;;19.30;54.00;;;;;;5011822;28;20037;-65
2021/04/15 06:54:39;;;;;;;8.45;4.05;;;19.60;52.30;;;;;;5027262;28;20104;-65
2021/04/15 06:57:22;;;;;;;7.95;3.72;;;19.80;51.00;;;;;;5028923;28;20648;-66
2021/04/15 07:00:13;;;;;;;6.53;3.55;;;19.90;49.40;;;;;;5026690;28;20038;-63
2021/04/15 07:03:09;;;;;;;8.23;3.60;;;20.00;49.50;;;;;;5026605;28;20041;-64
2021/04/15 07:06:18;;;;;;;7.72;3.70;;;20.60;48.50;;;;;;4995591;28;20056;-65
2021/04/15 07:08:53;;;;;;;6.55;2.92;;;21.30;46.30;;;;;;5013065;28;20037;-65
2021/04/15 07:11:36;;;;;;;6.57;3.38;;;21.50;44.10;;;;;;5027987;28;20462;-65
2021/04/15 07:14:28;;;;;;;5.68;2.65;;;21.70;42.60;;;;;;5028066;28;20045;-64
2021/04/15 07:17:27;;;;;;;7.82;3.00;;;21.70;42.20;;;;;;5011311;28;20030;-63
2021/04/15 07:20:05;;;;;;;6.88;2.90;;;21.70;41.20;;;;;;5029185;28;20114;-64
2021/04/15 07:23:04;;;;;;;5.80;2.63;;;21.90;41.50;;;;;;5029702;28;20045;-65
2021/04/15 07:25:51;;;;;;;8.38;2.70;;;22.70;40.80;;;;;;5025506;28;20029;-64
2021/04/15 07:28:55;;;;;;;6.40;2.80;;;23.30;40.00;;;;;;5010496;28;20051;-66
2021/04/15 07:32:00;;;;;;;5.35;2.50;;;23.90;39.40;;;;;;5029439;28;20040;-65
2021/04/15 07:34:44;;;;;;;5.45;2.63;;;24.50;37.90;;;;;;4963835;28;20739;-63
2021/04/15 07:37:43;;;;;;;5.95;2.42;;;24.90;37.20;;;;;;5007872;28;20426;-64
2021/04/15 07:40:37;;;;;;;5.68;2.30;;;25.40;36.20;;;;;;5028873;28;20508;-63
2021/04/15 07:43:34;;;;;;;4.70;2.20;;;25.90;35.30;;;;;;5018731;28;20033;-64
2021/04/15 07:46:45;;;;;;;5.50;2.42;;;26.40;34.50;;;;;;5026357;28;20379;-64
2021/04/15 07:49:29;;;;;;;4.95;2.15;;;26.90;33.40;;;;;;5020496;28;20103;-65
2021/04/15 07:52:25;;;;;;;4.32;1.98;;;27.20;32.30;;;;;;5024759;28;20434;-65
2021/04/15 07:54:57;;;;;;;6.57;2.25;;;27.40;31.10;;;;;;5005268;28;20042;-64
2021/04/15 07:57:54;;;;;;;7.00;2.50;;;27.70;30.90;;;;;;5014470;28;20131;-65
2021/04/15 08:00:32;;;;;;;5.38;2.10;;;28.30;30.80;;;;;;4999127;28;20486;-65
2021/04/15 08:03:13;;;;;;;5.25;2.10;;;29.10;30.20;;;;;;5014946;28;20851;-65
2021/04/15 08:06:03;;;;;;;4.22;2.15;;;30.00;29.60;;;;;;5032565;28;20037;-65
2021/04/15 08:08:53;;;;;;;6.18;2.50;;;30.20;28.50;;;;;;5032221;28;20021;-64
2021/04/15 08:11:58;;;;;;;5.55;1.90;;;30.40;28.20;;;;;;5032634;28;20060;-64
2021/04/15 08:14:35;;;;;;;3.67;1.70;;;30.80;27.70;;;;;;5031003;28;20040;-65
2021/04/15 08:17:16;;;;;;;2.92;1.50;;;30.90;27.10;;;;;;5032396;28;20071;-66
2021/04/15 08:20:07;;;;;;;3.35;1.60;;;30.90;26.40;;;;;;5034092;28;20091;-70
2021/04/15 08:23:11;;;;;;;5.47;2.10;;;30.90;26.50;;;;;;5033168;28;20033;-72
2021/04/15 08:26:12;;;;;;;4.47;1.92;;;31.20;25.90;;;;;;4917300;29;20501;-71
2021/04/15 08:29:06;;;;;;;3.28;1.33;;;31.70;25.50;;;;;;5014829;28;20037;-71
2021/04/15 08:32:23;;;;;;;3.95;1.50;;;32.10;25.20;;;;;;5031866;28;20033;-70
2021/04/15 08:35:10;;;;;;;3.53;1.52;;;32.40;24.50;;;;;;4999181;28;20025;-71
2021/04/15 08:38:18;;;;;;;3.53;1.70;;;32.20;23.90;;;;;;5030933;28;20044;-71
2021/04/15 08:41:03;;;;;;;4.18;1.50;;;32.70;24.10;;;;;;5047526;28;20033;-72
2021/04/15 08:43:53;;;;;;;3.88;1.10;;;33.50;23.70;;;;;;5015148;28;20026;-73
2021/04/15 08:46:30;;;;;;;2.67;0.98;;;34.10;23.10;;;;;;5032592;28;20037;-71
2021/04/15 08:49:20;;;;;;;1.83;0.90;;;34.70;22.40;;;;;;5032240;28;20028;-72
2021/04/15 08:51:54;;;;;;;3.60;0.95;;;35.10;22.00;;;;;;5032438;28;20052;-72
2021/04/15 08:54:43;;;;;;;2.30;1.00;;;35.10;21.50;;;;;;5032525;28;20033;-71
2021/04/15 08:57:27;;;;;;;2.22;0.75;;;35.30;21.00;;;;;;5031497;28;20048;-71
2021/04/15 09:00:13;;;;;;;1.85;1.00;;;35.10;20.40;;;;;;5032587;28;20056;-71
2021/04/15 09:03:01;;;;;;;1.90;0.80;;;35.40;20.50;;;;;;5032155;28;20577;-72
2021/04/15 09:05:35;;;;;;;1.05;0.80;;;35.70;20.20;;;;;;5047180;28;20401;-71
2021/04/15 09:08:35;;;;;;;1.15;0.70;;;35.10;20.00;;;;;;5030858;28;20068;-73
2021/04/15 09:11:15;;;;;;;1.13;0.80;;;35.60;20.10;;;;;;5032210;28;20044;-71
2021/04/15 09:14:13;;;;;;;1.85;0.80;;;36.60;20.10;;;;;;5032221;28;20382;-72
2021/04/15 09:16:42;;;;;;;1.38;0.70;;;36.90;19.30;;;;;;5036077;28;20040;-72
2021/04/15 09:19:27;;;;;;;2.10;0.60;;;36.90;19.30;;;;;;5031424;28;20039;-72
2021/04/15 09:22:06;;;;;;;1.23;0.60;;;37.60;19.20;;;;;;5031708;28;20401;-71
2021/04/15 09:24:50;;;;;;;;;;;38.30;18.70;;;;;;4998246;28;20064;-73
2021/04/15 09:27:22;;;;;;;1.73;0.50;;;38.60;18.60;;;;;;5031233;28;20348;-71
2021/04/15 09:30:13;;;;;;;0.73;0.50;;;38.60;18.20;;;;;;5031501;28;20051;-71
2021/04/15 09:32:52;;;;;;;1.50;0.50;;;39.00;18.00;;;;;;5011032;28;20044;-71
2021/04/15 09:36:00;;;;;;;2.40;0.70;;;39.40;17.80;;;;;;5031729;28;20041;-71
2021/04/15 09:38:53;;;;;;;1.23;0.70;;;36.70;16.60;;;;;;4950045;29;20061;-72
2021/04/15 09:41:36;;;;;;;1.95;0.90;;;31.90;17.00;;;;;;5011787;28;20037;-71
2021/04/15 09:44:40;;;;;;;1.95;0.80;;;29.90;18.20;;;;;;5014196;28;20037;-72
2021/04/15 09:47:44;;;;;;;1.92;0.80;;;30.90;19.30;;;;;;5030871;28;20042;-71
2021/04/15 09:50:57;;;;;;;2.42;0.90;;;29.80;17.80;;;;;;5031345;28;20030;-72
2021/04/15 09:53:56;;;;;;;3.55;0.80;;;26.60;17.80;;;;;;5029636;28;20113;-71
2021/04/15 09:56:28;;;;;;;2.75;0.80;;;23.60;18.90;;;;;;5031078;28;20109;-71
2021/04/15 09:59:23;;;;;;;2.22;0.95;;;22.80;21.00;;;;;;5030939;28;20056;-71
2021/04/15 10:02:08;;;;;;;1.92;0.80;;;23.10;20.80;;;;;;5031098;28;20056;-71
2021/04/15 10:04:49;;;;;;;1.90;0.82;;;22.90;20.20;;;;;;5013712;28;20460;-72
2021/04/15 10:07:34;;;;;;;1.67;0.75;;;21.80;20.20;;;;;;5030579;28;20038;-71
2021/04/15 10:10:24;;;;;;;1.48;0.80;;;20.50;21.00;;;;;;5030926;28;20581;-71
2021/04/15 10:12:58;;;;;;;1.85;0.65;;;19.40;21.40;;;;;;4997015;28;20095;-70
2021/04/15 10:15:45;;;;;;;2.40;0.77;;;18.40;22.00;;;;;;5012917;28;20048;-71
2021/04/15 10:18:31;;;;;;;1.75;0.70;;;17.70;22.50;;;;;;5030030;28;20030;-71
2021/04/15 10:21:42;;;;;;;2.60;0.75;;;17.50;23.10;;;;;;5031094;28;20428;-71
2021/04/15 10:24:08;;;;;;;2.70;1.00;;;17.30;23.40;;;;;;4950104;29;20489;-72
2021/04/15 10:27:15;;;;;;;3.53;0.90;;;16.90;23.80;;;;;;4950913;29;20047;-71
2021/04/15 10:29:41;;;;;;;2.33;0.80;;;16.80;24.40;;;;;;4942039;28;20569;-71
2021/04/15 10:32:12;;;;;;;1.70;0.90;;;16.70;24.50;;;;;;5011534;28;20120;-73
2021/04/15 10:34:50;;;;;;;3.38;1.17;;;16.60;24.90;;;;;;5021776;28;20412;-73
2021/04/15 10:37:31;;;;;;;3.13;0.93;;;16.50;25.10;;;;;;5007380;28;20038;-72
2021/04/15 10:40:03;;;;;;;1.90;1.02;;;16.50;25.40;;;;;;5028039;28;20038;-71
2021/04/15 10:43:06;;;;;;;2.35;0.90;;;16.40;25.40;;;;;;5030883;28;20129;-73
2021/04/15 10:45:47;;;;;;;4.47;0.90;;;16.30;25.80;;;;;;5031137;28;20045;-72
2021/04/15 10:48:31;;;;;;;;;;;16.60;26.20;;;;;;5030263;28;20049;-72
2021/04/15 10:51:03;;;;;;;1.95;0.80;;;18.70;27.50;;;;;;5029647;28;19920;-71
2021/04/15 10:53:55;;;;;;;2.00;0.80;;;20.40;25.90;;;;;;5030751;28;20528;-64
2021/04/15 10:56:23;;;;;;;3.35;0.88;;;20.80;24.50;;;;;;5030309;28;20029;-63
2021/04/15 10:59:14;;;;;;;1.77;0.82;;;21.70;24.60;;;;;;5030329;28;20034;-63
2021/04/15 11:01:48;;;;;;;1.67;0.88;;;22.50;23.50;;;;;;5022004;28;20563;-63
2021/04/15 11:04:13;;;;;;;2.33;0.80;;;21.60;22.40;;;;;;5031195;28;20123;-71
2021/04/15 11:06:50;;;;;;;3.05;1.00;;;20.20;22.20;;;;;;5030333;28;20041;-71
2021/04/15 11:09:28;;;;;;;1.95;0.80;;;18.80;22.50;;;;;;4996737;28;20053;-72
2021/04/15 11:12:15;;;;;;;2.47;0.80;;;17.60;23.60;;;;;;5030802;28;20459;-72
2021/04/15 11:14:44;;;;;;;2.38;0.90;;;16.80;24.10;;;;;;4996572;28;20072;-71
2021/04/15 11:17:23;;;;;;;6.18;0.90;;;16.40;25.00;;;;;;5030687;28;20040;-72
2021/04/15 11:20:05;;;;;;;1.50;0.88;;;16.40;25.60;;;;;;5012489;28;20522;-71
2021/04/15 11:22:33;;;;;;;1.88;0.90;;;17.70;26.40;;;;;;5030717;28;20041;-72
2021/04/15 11:25:21;;;;;;;2.72;1.00;;;21.00;27.30;;;;;;5030170;28;20025;-72
2021/04/15 11:27:48;;;;;;;2.58;1.00;;;24.60;26.00;;;;;;5029888;28;20045;-71
2021/04/15 11:30:42;;;;;;;1.85;1.10;;;26.70;24.30;;;;;;5029961;28;20043;-70
2021/04/15 11:33:11;;;;;;;2.78;0.93;;;26.00;21.70;;;;;;5014810;28;20448;-72
2021/04/15 11:35:39;;;;;;;1.75;0.95;;;24.10;20.90;;;;;;5033914;28;20030;-72
2021/04/15 11:38:25;;;;;;;2.70;1.00;;;22.20;21.10;;;;;;5033576;28;20533;-72
2021/04/15 11:40:52;;;;;;;3.28;1.08;;;20.40;21.80;;;;;;5033955;28;20450;-70
2021/04/15 11:43:44;;;;;;;2.20;1.05;;;18.90;22.40;;;;;;5033122;28;20041;-71
2021/04/15 11:46:24;;;;;;;0.98;0.77;;;17.80;23.20;;;;;;5030163;28;20091;-69
2021/04/15 11:49:16;;;;;;;2.17;0.85;;;17.10;24.00;;;;;;5016481;28;20502;-70
2021/04/15 11:52:09;;;;;;;2.47;0.90;;;16.70;24.00;;;;;;5028556;28;20030;-72
2021/04/15 11:54:53;;;;;;;2.33;0.90;;;16.50;24.30;;;;;;5030002;28;20045;-72
2021/04/15 11:57:18;;;;;;;2.33;0.90;;;16.90;24.70;;;;;;5011720;28;20049;-70
2021/04/15 12:00:10;;;;;;;2.15;1.00;;;17.20;24.40;;;;;;5031108;28;20120;-72
2021/04/15 12:02:46;;;;;;;2.08;1.08;;;17.30;24.20;;;;;;5030105;28;20545;-72
2021/04/15 12:05:18;;;;;;;2.60;1.00;;;17.40;24.70;;;;;;5030461;28;20029;-72
2021/04/15 12:07:53;;;;;;;1.98;0.90;;;17.70;24.90;;;;;;5029875;28;20369;-72
2021/04/15 12:10:23;;;;;;;2.50;1.00;;;19.10;25.70;;;;;;5022371;28;20049;-73
2021/04/15 12:12:53;;;;;;;1.50;0.82;;;20.00;24.80;;;;;;5029720;28;20038;-73
2021/04/15 12:15:24;;;;;;;4.68;1.00;;;19.80;23.50;;;;;;5030844;28;20053;-72
2021/04/15 12:17:59;;;;;;;2.22;0.82;;;19.20;23.20;;;;;;5011121;28;20178;-72
2021/04/15 12:20:33;;;;;;;3.58;1.10;;;18.50;23.40;;;;;;4996952;28;20055;-72
2021/04/15 12:23:22;;;;;;;2.58;1.00;;;17.90;23.90;;;;;;5030149;28;20030;-72
2021/04/15 12:25:53;;;;;;;2.55;0.73;;;17.50;24.30;;;;;;5010903;28;20570;-72
2021/04/15 12:28:38;;;;;;;2.40;0.80;;;17.30;24.60;;;;;;5029787;28;20068;-72
2021/04/15 12:31:22;;;;;;;3.05;0.90;;;17.10;24.70;;;;;;4996357;28;20624;-72
2021/04/15 12:33:51;;;;;;;1.77;0.80;;;16.80;25.10;;;;;;5028075;28;20026;-72
2021/04/15 12:36:29;;;;;;;1.73;0.90;;;16.60;25.30;;;;;;5030804;28;20042;-72
2021/04/15 12:39:14;;;;;;;1.63;0.90;;;16.40;25.30;;;;;;5011848;28;20103;-73
2021/04/15 12:41:40;;;;;;;2.38;1.00;;;16.20;25.70;;;;;;5028040;28;20037;-74
2021/04/15 12:44:29;;;;;;;2.67;1.00;;;16.20;25.80;;;;;;5012376;28;20041;-71
2021/04/15 12:46:59;;;;;;;3.33;0.80;;;16.30;26.10;;;;;;5012122;28;20065;-74
2021/04/15 12:49:36;;;;;;;1.70;0.70;;;16.50;26.50;;;;;;5013548;28;20044;-71
2021/04/15 12:52:08;;;;;;;2.60;0.60;;;16.90;26.20;;;;;;5031201;28;20029;-72
2021/04/15 12:54:37;;;;;;;1.92;0.90;;;16.90;25.40;;;;;;5030104;28;20501;-73
2021/04/15 12:57:07;;;;;;;1.77;0.70;;;16.80;25.10;;;;;;5029206;28;20038;-71
2021/04/15 12:59:41;;;;;;;2.45;0.80;;;16.70;25.10;;;;;;5012292;28;20098;-72
2021/04/15 13:02:19;;;;;;;2.05;0.90;;;16.60;25.30;;;;;;5030308;28;20040;-70
2021/04/15 13:05:11;;;;;;;1.75;0.90;;;16.70;26.00;;;;;;5030463;28;20064;-72
2021/04/15 13:07:42;;;;;;;2.88;1.00;;;16.80;25.40;;;;;;5020110;28;20064;-73
2021/04/15 13:10:15;;;;;;;3.63;0.98;;;16.70;25.30;;;;;;5028230;28;20037;-72
2021/04/15 13:12:49;;;;;;;2.13;1.00;;;16.90;25.90;;;;;;5029151;28;20038;-70
2021/04/15 13:15:24;;;;;;;3.40;1.20;;;17.30;26.10;;;;;;4995131;28;20044;-72
2021/04/15 13:17:56;;;;;;;3.13;1.50;;;17.60;25.90;;;;;;5013520;28;20490;-66
2021/04/15 13:20:22;;;;;;;2.45;1.02;;;17.70;25.80;;;;;;5030390;28;20042;-64
2021/04/15 13:23:06;;;;;;;2.92;1.13;;;17.30;25.40;;;;;;4997494;28;20056;-63
2021/04/15 13:25:53;;;;;;;2.28;0.98;;;16.60;25.70;;;;;;5032280;28;20036;-64
2021/04/15 13:28:23;;;;;;;3.50;0.90;;;15.80;26.10;;;;;;5011973;28;20037;-64
2021/04/15 13:31:00;;;;;;;1.75;1.15;;;15.30;26.90;;;;;;5029841;28;20034;-64
2021/04/15 13:33:32;;;;;;;2.60;1.02;;;15.00;27.70;;;;;;5029190;28;20060;-67
2021/04/15 13:35:58;;;;;;;2.03;1.00;;;15.00;28.20;;;;;;5033697;28;20056;-63
2021/04/15 13:41:01;;;;;;;2.05;0.90;;;15.50;28.70;;;;;;5030516;28;20524;-63
2021/04/15 13:43:42;;;;;;;2.10;0.90;;;15.70;28.40;;;;;;5029795;28;20112;-64
2021/04/15 13:46:28;;;;;;;2.00;0.80;;;15.90;28.20;;;;;;5028965;28;20029;-63
2021/04/15 13:49:12;;;;;;;4.55;0.85;;;15.90;27.80;;;;;;5028714;28;20034;-64
2021/04/15 13:52:14;;;;;;;1.98;0.65;;;15.90;27.30;;;;;;5012573;28;20037;-64